Terminal Aerodrome Forecast
Issued by NWS

Home | Current Version | Previous Version | Text Only | Print | Product List | Glossary On
Versions: 1 2 3 4 5 6 7 8 9 10 11 12 13 14 15 16 17
000
FTUS46 KSEW 190100 AAB
TAFBLI
TAF AMD
KBLI 190111Z 1901/1924 16006KT 6SM BR VCSH SCT010 OVC040
      TEMPO 1901/1904 3SM -RA BR
     FM190600 16006KT P6SM VCSH BKN020 OVC040
     FM191200 16006KT P6SM VCSH OVC015
     FM191900 18007KT P6SM BKN030=

USA.gov is the U.S. government's official web portal to all federal, state and local government web resources and services.